createdAt,value
2022-07-30T00:20:28.131Z,49.11
2022-07-30T00:28:02.140Z,49.69
2022-07-30T02:42:35.808Z,57.94
2022-07-30T02:46:34.433Z,58.20
2022-07-30T02:53:23.937Z,58.09
2022-07-30T03:00:57.475Z,58.84
2022-07-30T03:03:45.476Z,57.84
2022-07-30T03:06:36.286Z,58.33
2022-07-30T03:09:10.399Z,58.06
2022-07-30T03:11:41.303Z,59.67
2022-07-30T03:14:08.810Z,60.41
2022-07-30T03:18:07.405Z,58.71
2022-07-30T03:20:35.902Z,59.90
2022-07-30T03:26:26.988Z,59.30
2022-07-30T03:29:13.827Z,59.25
2022-07-30T03:32:05.965Z,61.41
2022-07-30T03:34:52.160Z,61.06
2022-07-30T03:38:55.685Z,60.45
2022-07-30T03:41:09.198Z,60.44
2022-07-30T03:44:21.506Z,61.27
2022-07-30T03:47:20.293Z,60.69
2022-07-30T03:50:30.217Z,59.28
2022-07-30T03:56:04.605Z,60.39
2022-07-30T03:58:49.847Z,61.36
2022-07-30T04:05:50.089Z,60.26
2022-07-30T04:08:28.841Z,60.91
2022-07-30T04:11:40.974Z,61.30
2022-07-30T04:14:52.639Z,61.08
2022-07-30T04:21:34.096Z,61.44
2022-07-30T04:24:16.706Z,61.41
2022-07-30T04:27:17.470Z,61.33
2022-07-30T04:30:23.379Z,62.50
2022-07-30T04:33:19.930Z,62.09
2022-07-30T04:35:52.243Z,63.06
2022-07-30T04:38:59.258Z,61.98
2022-07-30T04:47:50.920Z,61.86
2022-07-30T04:49:04.704Z,61.86
2022-07-30T04:52:10.765Z,61.62
2022-07-30T04:55:36.605Z,62.48
2022-07-30T04:58:50.386Z,61.97
2022-07-30T05:01:51.294Z,60.65
2022-07-30T05:04:22.340Z,60.36
2022-07-30T05:11:01.689Z,59.55
2022-07-30T05:13:34.757Z,61.92
2022-07-30T05:16:51.966Z,61.50
2022-07-30T05:27:15.262Z,62.32
2022-07-30T05:28:05.376Z,62.31
2022-07-30T05:31:17.078Z,60.14
2022-07-30T05:37:48.867Z,59.17
2022-07-30T05:40:43.031Z,61.32
2022-07-30T05:47:02.436Z,60.06
2022-07-30T05:50:40.145Z,60.60
2022-07-30T05:52:48.579Z,59.42
2022-07-30T05:53:18.102Z,61.17
2022-07-30T05:56:37.054Z,60.59
2022-07-30T05:59:53.579Z,60.78
2022-07-30T06:03:12.214Z,60.37
2022-07-30T06:15:44.673Z,60.71
2022-07-30T06:37:11.717Z,59.26
2022-07-30T06:40:23.710Z,61.03
2022-07-30T06:43:17.788Z,61.01
2022-07-30T06:46:25.246Z,58.92
2022-07-30T06:48:52.466Z,59.31
2022-07-30T06:52:02.221Z,58.25
2022-07-30T06:54:29.623Z,58.49
2022-07-30T06:57:03.103Z,59.61
2022-07-30T06:59:30.801Z,58.52
2022-07-30T07:02:50.131Z,58.58
2022-07-30T07:05:23.935Z,57.51
2022-07-30T07:08:48.786Z,58.31
2022-07-30T07:11:24.301Z,57.39
2022-07-30T07:13:54.306Z,57.39
2022-07-30T07:16:36.890Z,56.66
2022-07-30T07:19:10.001Z,56.69
2022-07-30T07:25:57.157Z,56.66
2022-07-30T07:28:29.992Z,56.24
2022-07-30T07:31:04.196Z,54.98
2022-07-30T07:33:48.094Z,54.96
2022-07-30T07:36:59.497Z,54.72
2022-07-30T07:40:00.668Z,55.70
2022-07-30T07:42:27.832Z,55.41
2022-07-30T07:44:58.299Z,54.36
2022-07-30T07:48:20.581Z,54.70
2022-07-30T07:50:57.094Z,53.92
2022-07-30T07:53:37.642Z,53.78
2022-07-30T07:57:10.353Z,52.66
2022-07-30T07:59:44.959Z,52.55
2022-07-30T08:02:12.842Z,52.05
2022-07-30T08:04:43.222Z,52.46
2022-07-30T08:10:03.049Z,50.76
2022-07-30T08:12:39.863Z,49.53
2022-07-30T08:15:29.803Z,50.11
2022-07-30T08:18:11.635Z,51.02
2022-07-30T08:21:22.996Z,48.48
2022-07-30T08:23:56.489Z,48.90
2022-07-30T08:26:23.470Z,47.94
2022-07-30T08:29:16.773Z,49.16
2022-07-30T08:31:47.714Z,47.92
2022-07-30T08:34:21.031Z,45.83
2022-07-30T08:37:31.548Z,47.67
2022-07-30T08:40:02.858Z,48.07
2022-07-30T08:43:21.110Z,47.94
2022-07-30T08:48:22.969Z,47.85
2022-07-30T08:51:37.870Z,46.66
2022-07-30T08:54:07.878Z,46.37
2022-07-30T08:56:35.539Z,44.36
2022-07-30T08:59:03.649Z,44.98
2022-07-30T09:01:42.431Z,48.37
2022-07-30T09:04:09.502Z,46.82
2022-07-30T09:09:51.063Z,45.54
2022-07-30T09:12:42.052Z,43.42
2022-07-30T09:16:05.404Z,42.53
2022-07-30T09:18:40.530Z,45.86
2022-07-30T09:21:43.162Z,44.41
2022-07-30T09:24:13.026Z,44.97
2022-07-30T09:27:04.731Z,43.69
2022-07-30T09:29:44.704Z,43.84
2022-07-30T09:32:22.567Z,44.53
2022-07-30T09:34:49.763Z,45.12
2022-07-30T09:37:26.131Z,45.95
2022-07-30T09:39:59.529Z,45.19
2022-07-30T09:42:29.065Z,43.29
2022-07-30T09:45:15.316Z,42.97
2022-07-30T09:47:49.447Z,42.68
2022-07-30T09:53:12.288Z,41.48
2022-07-30T09:55:42.343Z,41.30
2022-07-30T09:58:20.017Z,41.40
2022-07-30T10:01:13.081Z,42.60
2022-07-30T10:03:49.043Z,42.66
2022-07-30T10:06:19.172Z,42.29
2022-07-30T10:08:53.857Z,43.03
2022-07-30T10:11:24.377Z,43.75
2022-07-30T10:13:57.266Z,42.47
2022-07-30T10:16:31.062Z,42.39
2022-07-30T10:19:03.977Z,41.99
2022-07-30T10:21:37.996Z,41.77
2022-07-30T10:26:50.948Z,42.94
2022-07-30T10:29:56.545Z,41.74
2022-07-30T10:32:39.063Z,41.90
2022-07-30T10:35:34.727Z,40.70
2022-07-30T10:38:30.379Z,41.12
2022-07-30T10:42:08.409Z,40.71
2022-07-30T10:45:17.454Z,39.92
2022-07-30T10:47:56.470Z,40.54
2022-07-30T10:50:29.503Z,41.84
2022-07-30T10:54:06.399Z,41.17
2022-07-30T10:56:25.815Z,39.99
2022-07-30T10:59:23.980Z,39.12
2022-07-30T11:02:03.055Z,40.26
2022-07-30T11:04:34.056Z,38.55
2022-07-30T11:07:29.548Z,39.02
2022-07-30T11:10:08.729Z,38.79
2022-07-30T11:12:52.831Z,39.48
2022-07-30T11:15:23.861Z,39.40
2022-07-30T11:18:11.418Z,38.59
2022-07-30T11:21:14.613Z,40.24
2022-07-30T11:23:54.772Z,39.44
2022-07-30T11:26:41.129Z,39.70
2022-07-30T11:29:35.513Z,36.68
2022-07-30T11:33:21.900Z,39.08
2022-07-30T11:35:34.466Z,37.95
2022-07-30T11:38:48.764Z,38.06
2022-07-30T11:41:16.578Z,38.96
2022-07-30T11:43:46.649Z,38.14
2022-07-30T11:46:29.223Z,37.04
2022-07-30T11:49:08.231Z,37.05
2022-07-30T11:51:51.014Z,39.03
2022-07-30T11:54:21.611Z,37.84
2022-07-30T11:57:04.770Z,38.34
2022-07-30T12:00:40.084Z,38.28
2022-07-30T12:03:16.483Z,38.92
2022-07-30T12:05:57.882Z,37.80
2022-07-30T12:09:14.099Z,37.25
2022-07-30T12:11:41.383Z,36.98
2022-07-30T12:14:11.855Z,37.59
2022-07-30T12:16:52.376Z,37.08
2022-07-30T12:19:19.806Z,38.64
2022-07-30T12:21:53.278Z,37.03
2022-07-30T12:24:26.677Z,36.59
2022-07-30T12:27:08.083Z,35.85
2022-07-30T12:29:41.640Z,35.77
2022-07-30T12:32:19.160Z,36.21
2022-07-30T12:35:51.066Z,35.96
2022-07-30T12:38:21.563Z,35.69
2022-07-30T12:41:00.270Z,35.68
2022-07-30T12:43:59.391Z,35.76
2022-07-30T12:46:43.526Z,35.16
2022-07-30T12:49:21.452Z,35.81
2022-07-30T12:51:59.816Z,35.47
2022-07-30T12:54:31.245Z,35.47
2022-07-30T12:57:06.840Z,36.31
2022-07-30T12:59:40.737Z,35.40
2022-07-30T13:02:08.187Z,35.87
2022-07-30T13:05:10.233Z,36.78
2022-07-30T13:08:05.999Z,36.78
2022-07-30T13:10:39.181Z,35.58
2022-07-30T13:13:06.349Z,35.72
2022-07-30T13:15:35.932Z,33.26
2022-07-30T13:18:04.748Z,33.45
2022-07-30T13:20:32.015Z,34.55
2022-07-30T13:23:01.996Z,33.94
2022-07-30T13:25:38.766Z,34.55
2022-07-30T13:28:13.482Z,34.11
2022-07-30T13:30:43.891Z,34.78
2022-07-30T13:33:16.494Z,34.47
2022-07-30T13:35:43.847Z,33.72
2022-07-30T13:38:24.936Z,33.78
2022-07-30T13:40:52.978Z,33.57
2022-07-30T13:43:29.517Z,33.49
2022-07-30T13:46:03.198Z,35.05
2022-07-30T13:48:35.858Z,32.72
2022-07-30T13:51:05.583Z,33.26
2022-07-30T13:53:32.948Z,33.35
2022-07-30T13:56:00.307Z,35.21
2022-07-30T13:58:27.775Z,34.75
2022-07-30T14:00:58.243Z,35.01
2022-07-30T14:03:28.736Z,33.98
2022-07-30T14:06:10.894Z,32.78
2022-07-30T14:08:42.290Z,31.83
2022-07-30T14:11:09.369Z,31.62
2022-07-30T14:13:36.475Z,30.84
2022-07-30T14:16:35.183Z,31.64
2022-07-30T14:18:57.608Z,30.72
2022-07-30T14:21:33.454Z,29.76
2022-07-30T14:24:00.724Z,29.05
2022-07-30T14:26:36.627Z,30.37
2022-07-30T14:31:57.439Z,29.04
2022-07-30T14:34:27.488Z,30.07
2022-07-30T14:37:00.691Z,32.02
2022-07-30T14:42:09.237Z,28.45
2022-07-30T14:44:48.265Z,29.91
2022-07-30T14:47:21.500Z,30.11
2022-07-30T14:49:48.845Z,30.09
2022-07-30T14:52:15.918Z,31.07
2022-07-30T14:54:43.056Z,29.83
2022-07-30T14:57:10.697Z,29.83
2022-07-30T14:59:38.088Z,28.91
2022-07-30T15:02:06.087Z,29.20
2022-07-30T15:04:41.364Z,27.72
2022-07-30T15:07:22.633Z,27.94
2022-07-30T15:09:49.926Z,29.89
2022-07-30T15:12:45.846Z,29.17
2022-07-30T15:15:24.780Z,29.39
2022-07-30T15:17:55.898Z,29.91
2022-07-30T15:20:25.719Z,30.03
2022-07-30T15:22:53.545Z,29.88
2022-07-30T15:25:22.134Z,28.97
2022-07-30T15:27:49.606Z,28.04
2022-07-30T15:30:16.634Z,27.50
2022-07-30T15:32:46.299Z,28.47
2022-07-30T15:35:28.595Z,28.46
2022-07-30T15:37:58.950Z,28.84
2022-07-30T15:40:34.423Z,29.66
2022-07-30T15:43:01.463Z,28.81
2022-07-30T15:45:51.006Z,28.54
2022-07-30T15:48:26.543Z,28.85
2022-07-30T15:51:03.302Z,29.95
2022-07-30T15:53:32.523Z,30.03
2022-07-30T15:56:20.762Z,28.78
2022-07-30T15:58:58.779Z,30.05
2022-07-30T16:01:35.673Z,29.63
2022-07-30T16:04:05.853Z,29.58
2022-07-30T16:07:08.501Z,28.99
2022-07-30T16:11:36.962Z,29.27
2022-07-30T16:13:10.083Z,28.42
2022-07-30T16:15:49.067Z,29.04
2022-07-30T16:18:29.954Z,28.55
2022-07-30T16:21:14.636Z,27.99
2022-07-30T16:23:43.712Z,28.26
2022-07-30T16:27:16.833Z,28.84
2022-07-30T16:29:47.005Z,29.11
2022-07-30T16:32:20.225Z,28.59
2022-07-30T16:34:47.291Z,30.51
2022-07-30T16:37:40.510Z,29.38
2022-07-30T16:40:10.949Z,28.51
2022-07-30T16:42:57.392Z,28.89
2022-07-30T16:48:13.900Z,28.40
2022-07-30T16:50:48.574Z,28.92
2022-07-30T16:53:30.531Z,28.60
2022-07-30T16:56:21.087Z,29.66
2022-07-30T16:59:08.545Z,30.10
2022-07-30T17:02:19.778Z,29.62
2022-07-30T17:04:52.877Z,29.81
2022-07-30T17:07:25.253Z,30.71
2022-07-30T17:10:43.789Z,31.81
2022-07-30T17:13:11.045Z,32.09
2022-07-30T17:15:38.933Z,30.87
2022-07-30T17:18:31.838Z,31.25
2022-07-30T17:21:23.755Z,32.13
2022-07-30T17:24:15.062Z,31.70
2022-07-30T17:26:43.889Z,32.37
2022-07-30T17:29:50.204Z,32.90
2022-07-30T17:32:20.062Z,32.43
2022-07-30T17:38:02.617Z,33.26
2022-07-30T17:40:44.854Z,33.77
2022-07-30T17:43:16.081Z,33.54
2022-07-30T17:46:01.096Z,33.07
2022-07-30T17:48:34.506Z,33.94
2022-07-30T17:51:21.632Z,33.26
2022-07-30T17:56:52.240Z,32.98
2022-07-30T17:59:19.455Z,33.61
2022-07-30T18:02:29.304Z,34.11
2022-07-30T18:04:56.759Z,34.27
2022-07-30T18:07:27.654Z,34.92
2022-07-30T18:09:55.351Z,35.49
2022-07-30T18:13:22.444Z,34.89
2022-07-30T18:22:06.847Z,35.86
2022-07-30T18:25:18.760Z,36.32
2022-07-30T18:28:05.151Z,36.88
2022-07-30T18:30:42.033Z,36.36
2022-07-30T18:33:31.287Z,36.84
2022-07-30T18:35:58.751Z,36.42
2022-07-30T18:38:26.111Z,37.32
2022-07-30T18:40:59.423Z,37.67
2022-07-30T18:47:08.957Z,39.08
2022-07-30T18:50:14.423Z,40.06
2022-07-30T18:53:54.592Z,39.76
2022-07-30T18:56:32.622Z,40.81
2022-07-30T18:59:14.911Z,40.62
2022-07-30T19:02:11.412Z,40.58
2022-07-30T19:04:38.940Z,40.60
2022-07-30T19:07:08.503Z,41.68
2022-07-30T19:10:32.915Z,43.41
2022-07-30T19:13:02.454Z,47.05
2022-07-30T19:15:33.293Z,48.55
2022-07-30T19:18:07.705Z,47.13
2022-07-30T19:20:35.184Z,46.50
2022-07-30T19:23:08.825Z,47.18
2022-07-30T19:26:19.266Z,47.09
2022-07-30T19:28:58.783Z,45.65
2022-07-30T19:31:45.216Z,44.87
2022-07-30T19:34:15.610Z,48.20
2022-07-30T19:40:44.844Z,50.65
2022-07-30T19:43:57.652Z,47.35
2022-07-30T19:47:01.843Z,47.56
2022-07-30T19:52:25.514Z,48.73
2022-07-30T19:55:35.496Z,50.04
2022-07-30T20:05:20.600Z,48.17
2022-07-30T20:11:35.059Z,57.44
2022-07-30T20:14:04.916Z,56.80
2022-07-30T20:17:39.007Z,55.51
2022-07-30T20:20:34.122Z,57.06
2022-07-30T20:23:04.510Z,56.59
2022-07-30T20:30:10.332Z,55.26
2022-07-30T20:50:49.221Z,53.26
2022-07-30T21:11:51.779Z,65.62
2022-07-30T21:17:58.930Z,65.68
2022-07-30T21:21:04.995Z,65.02
2022-07-30T21:24:37.742Z,63.91
2022-07-30T21:27:43.065Z,64.65
2022-07-30T21:30:11.893Z,65.31
2022-07-30T21:32:39.761Z,66.95
2022-07-30T21:35:42.684Z,68.89
2022-07-30T21:39:20.342Z,64.95
2022-07-30T21:42:25.903Z,64.83
2022-07-30T21:49:44.984Z,60.48
2022-07-30T21:52:21.309Z,60.26
2022-07-30T21:55:04.156Z,59.83
2022-07-30T22:01:22.556Z,61.25
2022-07-30T22:04:47.507Z,62.33
2022-07-30T22:24:36.546Z,59.95
2022-07-30T22:27:56.278Z,60.58
2022-07-30T22:31:39.591Z,61.02
2022-07-30T22:35:13.071Z,60.74
2022-07-30T22:55:29.909Z,62.96
2022-07-30T23:04:11.621Z,71.32
2022-07-30T23:07:05.514Z,71.69
2022-07-30T23:29:18.731Z,71.00
2022-07-30T23:58:48.801Z,74.38
